Time;durP1;ratioP1;P1;durP2;ratioP2;P2;SDS_P1;SDS_P2;PMS_P1;PMS_P2;Temp;Humidity;BMP_temperature;BMP_pressure;BME280_temperature;BME280_humidity;BME280_pressure;Samples;Min_cycle;Max_cycle;Signal;HPM_P1;HPM_P2
2023/05/18 00:02:02;;;;;;;0.10;0.10;;;;;;;10.58;55.04;102971.91;5034253;28;20056;-79
2023/05/18 00:04:31;;;;;;;0.03;0.03;;;;;;;10.55;54.99;102975.41;5034126;28;20032;-79
2023/05/18 00:07:02;;;;;;;0.22;0.22;;;;;;;10.52;54.78;102976.25;5027721;28;20037;-79
2023/05/18 00:09:30;;;;;;;0.10;0.10;;;;;;;10.50;54.98;102977.09;5030675;28;20029;-80
2023/05/18 00:11:59;;;;;;;0.10;0.10;;;;;;;10.47;54.95;102977.94;5040227;28;20037;-80
2023/05/18 00:14:26;;;;;;;0.10;0.10;;;;;;;10.44;55.18;102974.38;5034780;28;20446;-80
2023/05/18 00:16:53;;;;;;;0.10;0.10;;;;;;;10.40;55.31;102983.16;5034894;28;20494;-79
2023/05/18 00:19:21;;;;;;;0.17;0.17;;;;;;;10.38;54.90;102979.56;5029668;28;20045;-79
2023/05/18 00:21:47;;;;;;;0.10;0.10;;;;;;;10.35;54.95;102981.28;5036478;28;20033;-80
2023/05/18 00:24:15;;;;;;;0.10;0.10;;;;;;;10.34;55.26;102982.16;5031152;28;20026;-80
2023/05/18 00:26:44;;;;;;;0.10;0.10;;;;;;;10.33;55.41;102985.66;5028986;28;20037;-79
2023/05/18 00:29:11;;;;;;;0.10;0.10;;;;;;;10.31;54.32;102981.22;5036475;28;20067;-79
2023/05/18 00:31:38;;;;;;;0.10;0.10;;;;;;;10.28;55.15;102987.34;5041051;28;20059;-80
2023/05/18 00:34:06;;;;;;;0.00;0.00;;;;;;;10.26;55.29;102982.91;5031502;28;20486;-79
2023/05/18 00:36:32;;;;;;;0.10;0.10;;;;;;;10.23;55.40;102983.75;5036692;28;20026;-80
2023/05/18 00:38:59;;;;;;;0.03;0.03;;;;;;;10.20;55.49;102983.69;5029202;28;21488;-79
2023/05/18 00:41:26;;;;;;;0.10;0.10;;;;;;;10.17;55.91;102989.81;5034346;28;20738;-79
2023/05/18 00:43:53;;;;;;;0.10;0.10;;;;;;;10.16;55.98;102992.47;5034244;28;20514;-79
2023/05/18 00:46:21;;;;;;;0.10;0.10;;;;;;;10.13;56.18;102989.75;5036295;28;20037;-80
2023/05/18 00:48:48;;;;;;;0.10;0.10;;;;;;;10.11;56.05;102995.03;5039876;28;20032;-80
2023/05/18 00:51:15;;;;;;;0.10;0.10;;;;;;;10.09;56.07;102982.63;5038131;28;20097;-79
2023/05/18 00:53:42;;;;;;;0.10;0.10;;;;;;;10.07;56.24;102987.00;5036560;28;20026;-79
2023/05/18 00:56:11;;;;;;;0.10;0.10;;;;;;;10.04;56.26;102994.03;5036266;28;20068;-80
2023/05/18 00:58:38;;;;;;;0.10;0.10;;;;;;;10.02;56.33;102990.47;5039703;28;20384;-79
2023/05/18 01:01:05;;;;;;;0.10;0.10;;;;;;;10.00;56.74;102986.00;5032360;28;20037;-79
2023/05/18 01:03:33;;;;;;;0.43;0.43;;;;;;;9.96;56.75;102985.06;5038110;28;20032;-79
2023/05/18 01:05:59;;;;;;;0.10;0.10;;;;;;;9.93;56.70;102986.75;5037527;28;20120;-78
2023/05/18 01:08:26;;;;;;;0.10;0.10;;;;;;;9.91;56.57;102985.88;5040048;28;20036;-78
2023/05/18 01:11:10;;;;;;;0.10;0.10;;;;;;;9.91;57.08;102994.69;5049685;28;20025;-79
2023/05/18 01:16:55;;;;;;;0.10;0.10;;;;;;;9.91;57.14;102993.81;5109366;27;20467;-80
2023/05/18 01:22:32;;;;;;;0.10;0.10;;;;;;;9.91;56.67;102994.69;5058804;28;20368;-81
2023/05/18 01:25:09;;;;;;;0.10;0.10;;;;;;;9.85;56.96;102997.22;5053951;28;20044;-80
2023/05/18 01:27:41;;;;;;;0.13;0.13;;;;;;;9.79;57.23;102992.69;5049686;28;20022;-81
2023/05/18 01:30:08;;;;;;;0.10;0.10;;;;;;;9.78;56.96;102995.34;5050810;28;20021;-81
2023/05/18 01:32:41;;;;;;;0.10;0.10;;;;;;;9.81;56.86;102990.09;5050177;28;20029;-81
2023/05/18 01:35:08;;;;;;;0.10;0.10;;;;;;;9.77;57.02;102994.47;5042007;28;20030;-81
2023/05/18 01:37:34;;;;;;;0.10;0.10;;;;;;;9.75;56.95;102990.00;5047849;28;20022;-79
2023/05/18 01:40:00;;;;;;;0.10;0.10;;;;;;;9.75;57.16;102984.69;5051141;28;20029;-79
2023/05/18 01:42:33;;;;;;;0.10;0.10;;;;;;;9.75;57.28;102987.34;5050955;28;20021;-79
2023/05/18 01:45:08;;;;;;;0.10;0.10;;;;;;;9.75;57.18;102990.00;5045810;28;20025;-80
2023/05/18 01:47:36;;;;;;;0.10;0.10;;;;;;;9.70;57.47;102997.84;5067404;28;20029;-78
2023/05/18 01:50:09;;;;;;;0.10;0.10;;;;;;;9.68;57.32;102992.53;5068577;28;20567;-81
2023/05/18 01:55:16;;;;;;;0.10;0.10;;;;;;;9.64;57.42;102995.09;5115696;27;20421;-81
2023/05/18 01:57:45;;;;;;;0.10;0.10;;;;;;;9.59;57.79;102994.13;5119276;28;20071;-81
2023/05/18 02:00:12;;;;;;;0.17;0.17;;;;;;;9.60;57.34;103002.06;5114601;28;20032;-81
2023/05/18 02:02:39;;;;;;;0.10;0.10;;;;;;;9.59;57.40;102995.00;5114196;28;20397;-79
2023/05/18 02:05:06;;;;;;;0.10;0.10;;;;;;;9.58;57.49;103001.16;5113883;28;20091;-81
2023/05/18 02:07:32;;;;;;;0.05;0.05;;;;;;;9.58;57.82;102995.84;5110195;28;20058;-82
2023/05/18 02:09:58;;;;;;;0.10;0.10;;;;;;;9.58;57.65;102992.31;5106113;28;20108;-81
2023/05/18 02:12:24;;;;;;;0.10;0.10;;;;;;;9.57;58.19;102994.09;5108972;28;20028;-81
2023/05/18 02:14:50;;;;;;;0.10;0.10;;;;;;;9.56;57.60;102997.59;5114307;28;20043;-81
2023/05/18 02:17:16;;;;;;;0.10;0.10;;;;;;;9.57;57.51;102993.19;5109732;28;20074;-81
2023/05/18 02:19:43;;;;;;;0.10;0.10;;;;;;;9.56;57.49;102987.00;5108227;28;20078;-81
2023/05/18 02:22:09;;;;;;;0.08;0.08;;;;;;;9.56;57.50;102992.31;5104964;28;20027;-81
2023/05/18 02:24:35;;;;;;;0.10;0.10;;;;;;;9.56;57.59;102992.31;5107002;28;20046;-80
2023/05/18 02:27:01;;;;;;;0.10;0.10;;;;;;;9.54;57.42;102991.38;5111572;28;20038;-81
2023/05/18 02:29:28;;;;;;;0.10;0.10;;;;;;;9.54;57.52;102991.38;5107970;28;20024;-81
2023/05/18 02:31:54;;;;;;;0.10;0.10;;;;;;;9.52;57.84;102987.78;5110161;28;20027;-81
2023/05/18 02:34:21;;;;;;;0.10;0.10;;;;;;;9.49;57.94;102993.03;5106731;28;20495;-81
2023/05/18 02:36:47;;;;;;;0.10;0.10;;;;;;;9.49;57.74;102990.41;5116080;28;20024;-78
2023/05/18 02:39:13;;;;;;;0.10;0.10;;;;;;;9.49;57.62;102982.47;5102149;28;20120;-80
2023/05/18 02:41:40;;;;;;;0.05;0.05;;;;;;;9.46;57.95;102991.22;5110293;28;20103;-80
2023/05/18 02:44:06;;;;;;;0.10;0.10;;;;;;;9.45;57.73;102992.09;5103395;28;20039;-78
2023/05/18 02:46:32;;;;;;;0.10;0.10;;;;;;;9.45;57.97;102991.22;5104682;28;20030;-78
2023/05/18 02:48:58;;;;;;;0.00;0.00;;;;;;;9.44;57.55;102994.72;5108347;28;20077;-80
2023/05/18 02:51:25;;;;;;;0.10;0.10;;;;;;;9.40;58.01;102988.47;5104854;28;20506;-80
2023/05/18 02:53:51;;;;;;;0.10;0.10;;;;;;;9.37;57.83;102989.31;5109481;28;20031;-79
2023/05/18 02:56:18;;;;;;;0.10;0.10;;;;;;;9.36;57.96;102984.88;5113473;28;20035;-79
2023/05/18 02:58:44;;;;;;;0.10;0.10;;;;;;;9.35;57.89;102987.50;5110728;28;20392;-79
2023/05/18 03:01:11;;;;;;;0.10;0.10;;;;;;;9.33;57.71;102987.47;5103499;28;20034;-81
2023/05/18 03:03:38;;;;;;;0.10;0.10;;;;;;;9.30;57.92;102987.41;5102683;28;20036;-81
2023/05/18 03:06:07;;;;;;;0.10;0.10;;;;;;;9.30;57.79;102991.81;5091541;28;20032;-80
2023/05/18 03:08:33;;;;;;;0.08;0.08;;;;;;;9.27;58.05;102992.63;5091802;28;20063;-82
2023/05/18 03:10:59;;;;;;;0.22;0.22;;;;;;;9.24;58.24;102989.91;5093105;28;20036;-82
2023/05/18 03:13:25;;;;;;;0.10;0.10;;;;;;;9.22;57.80;102994.28;5096431;28;20024;-78
2023/05/18 03:15:55;;;;;;;0.10;0.10;;;;;;;9.20;58.25;102990.72;5088128;28;20068;-76
2023/05/18 03:18:21;;;;;;;0.10;0.10;;;;;;;9.19;58.67;102994.22;5090271;28;20119;-79
2023/05/18 03:20:50;;;;;;;0.40;0.40;;;;;;;9.17;58.34;102996.84;5089722;28;20035;-79
2023/05/18 03:23:18;;;;;;;0.10;0.10;;;;;;;9.15;58.22;102992.38;5090199;28;20443;-78
2023/05/18 03:25:46;;;;;;;0.10;0.10;;;;;;;9.13;58.36;102989.69;5095423;28;20128;-78
2023/05/18 03:28:12;;;;;;;0.10;0.10;;;;;;;9.11;58.21;102991.44;5089666;28;20039;-79
2023/05/18 03:30:38;;;;;;;0.20;0.20;;;;;;;9.10;58.20;102994.00;5092560;28;20028;-78
2023/05/18 03:33:04;;;;;;;0.10;0.10;;;;;;;9.07;58.25;102993.13;5085739;28;20035;-78
2023/05/18 03:35:30;;;;;;;0.10;0.10;;;;;;;9.09;58.36;102995.78;5087569;28;20039;-77
2023/05/18 03:37:56;;;;;;;0.10;0.10;;;;;;;9.05;58.01;102988.66;5090583;28;20116;-77
2023/05/18 03:40:23;;;;;;;0.10;0.10;;;;;;;9.05;57.78;102986.88;5084347;28;20040;-78
2023/05/18 03:42:50;;;;;;;0.10;0.10;;;;;;;9.02;58.40;102985.94;5083218;28;20039;-80
2023/05/18 03:45:16;;;;;;;0.10;0.10;;;;;;;9.00;58.02;102985.91;5079288;28;20025;-79
2023/05/18 03:47:42;;;;;;;0.10;0.10;;;;;;;8.97;58.27;102991.16;5078192;28;20039;-79
2023/05/18 03:50:09;;;;;;;0.10;0.10;;;;;;;8.95;58.71;102984.91;5079321;28;20049;-78
2023/05/18 03:52:35;;;;;;;0.10;0.10;;;;;;;8.96;58.74;102997.28;5083614;28;20033;-79
2023/05/18 03:55:03;;;;;;;0.10;0.10;;;;;;;8.96;58.42;102992.00;5081100;28;20025;-81
2023/05/18 03:57:30;;;;;;;0.20;0.20;;;;;;;8.95;58.48;102994.59;5086205;28;20036;-80
2023/05/18 03:59:57;;;;;;;0.10;0.10;;;;;;;8.96;58.61;103001.66;5092436;28;20127;-79
2023/05/18 04:02:24;;;;;;;0.10;0.10;;;;;;;8.95;58.72;102998.13;5086161;28;20028;-79
2023/05/18 04:04:52;;;;;;;0.10;0.10;;;;;;;8.97;58.59;103003.44;5087736;28;20028;-80
2023/05/18 04:07:23;;;;;;;0.10;0.10;;;;;;;8.99;58.84;103007.91;5098218;28;20027;-79
2023/05/18 04:09:50;;;;;;;0.10;0.10;;;;;;;9.01;58.47;103005.28;5099547;28;20046;-79
2023/05/18 04:12:17;;;;;;;0.10;0.10;;;;;;;9.03;58.49;103000.94;5097911;28;20052;-78
2023/05/18 04:14:48;;;;;;;0.10;0.10;;;;;;;9.04;58.61;103005.38;5096905;28;20668;-80
2023/05/18 04:17:16;;;;;;;0.10;0.10;;;;;;;9.05;57.97;103015.09;5099977;28;20496;-80
2023/05/18 04:19:43;;;;;;;0.10;0.10;;;;;;;9.04;58.62;103010.66;5098067;28;20091;-81
2023/05/18 04:22:10;;;;;;;0.10;0.10;;;;;;;9.05;58.77;103008.03;5088829;28;20025;-80
2023/05/18 04:24:37;;;;;;;0.10;0.10;;;;;;;9.09;58.63;103009.00;5096820;28;20466;-80
2023/05/18 04:27:03;;;;;;;0.10;0.10;;;;;;;9.11;58.81;103017.88;5099403;28;20034;-80
2023/05/18 04:29:29;;;;;;;0.10;0.10;;;;;;;9.13;58.99;103013.50;5101596;28;20039;-80
2023/05/18 04:31:59;;;;;;;0.10;0.10;;;;;;;9.14;58.60;103017.03;5102458;28;20047;-81
2023/05/18 04:34:26;;;;;;;0.10;0.10;;;;;;;9.15;58.19;103014.44;5095434;28;20033;-80
2023/05/18 04:36:54;;;;;;;0.10;0.10;;;;;;;9.14;58.16;103007.34;5095847;28;20034;-81
2023/05/18 04:39:22;;;;;;;0.10;0.10;;;;;;;9.15;58.68;103013.53;5105032;28;20028;-77
2023/05/18 04:41:49;;;;;;;0.10;0.10;;;;;;;9.22;58.04;103015.44;5110182;28;20039;-78
2023/05/18 04:44:17;;;;;;;0.08;0.08;;;;;;;9.25;58.64;103014.63;5099448;28;20047;-80
2023/05/18 04:46:46;;;;;;;0.10;0.10;;;;;;;9.24;58.21;103013.72;5098818;28;20289;-78
2023/05/18 04:49:12;;;;;;;0.10;0.10;;;;;;;9.26;58.79;103021.69;5095199;28;20028;-81
2023/05/18 04:51:40;;;;;;;0.10;0.10;;;;;;;9.26;58.40;103027.88;5092122;28;20035;-80
2023/05/18 04:54:07;;;;;;;0.10;0.10;;;;;;;9.26;58.74;103021.69;5095461;28;20068;-81
2023/05/18 04:56:34;;;;;;;0.10;0.10;;;;;;;9.27;58.96;103028.75;5092419;28;20024;-80
2023/05/18 04:59:01;;;;;;;0.10;0.10;;;;;;;9.29;58.82;103027.94;5096195;28;20381;-80
2023/05/18 05:01:27;;;;;;;0.10;0.10;;;;;;;9.29;58.76;103022.63;5089470;28;20028;-79
2023/05/18 05:03:53;;;;;;;0.28;0.28;;;;;;;9.31;58.57;103031.50;5084567;28;20020;-81
2023/05/18 05:06:19;;;;;;;0.10;0.10;;;;;;;9.33;58.94;103024.50;5081610;28;20032;-80
2023/05/18 05:08:45;;;;;;;0.30;0.30;;;;;;;9.34;58.68;103031.56;5081596;28;20038;-80
2023/05/18 05:11:11;;;;;;;0.43;0.40;;;;;;;9.36;58.71;103024.56;5083855;28;20029;-80
2023/05/18 05:13:37;;;;;;;0.05;0.05;;;;;;;9.37;58.33;103029.00;5084963;28;20024;-79
2023/05/18 05:16:04;;;;;;;0.10;0.10;;;;;;;9.39;59.04;103029.94;5080165;28;20116;-80
2023/05/18 05:18:30;;;;;;;0.10;0.10;;;;;;;9.40;59.15;103028.16;5081475;28;20032;-78
2023/05/18 05:20:56;;;;;;;0.10;0.10;;;;;;;9.43;59.04;103028.19;5079823;28;20044;-81
2023/05/18 05:23:22;;;;;;;5.13;0.57;;;;;;;9.48;59.19;103028.31;5083115;28;20376;-79
2023/05/18 05:25:48;;;;;;;0.10;0.10;;;;;;;9.51;58.54;103025.72;5082733;28;20024;-79
2023/05/18 05:28:14;;;;;;;0.10;0.10;;;;;;;9.53;58.77;103031.94;5084824;28;20094;-81
2023/05/18 05:30:40;;;;;;;0.10;0.10;;;;;;;9.54;58.89;103033.72;5089555;28;20038;-79
2023/05/18 05:33:06;;;;;;;0.00;0.00;;;;;;;9.56;58.91;103037.28;5081380;28;20028;-80
2023/05/18 05:35:32;;;;;;;0.10;0.10;;;;;;;9.57;58.99;103038.16;5086549;28;20028;-80
2023/05/18 05:37:58;;;;;;;0.10;0.10;;;;;;;9.60;58.81;103048.84;5081304;28;20050;-80
2023/05/18 05:40:24;;;;;;;0.10;0.10;;;;;;;9.63;59.05;103033.00;5091323;28;20035;-80
2023/05/18 05:42:50;;;;;;;0.40;0.40;;;;;;;9.66;59.28;103035.72;5083631;28;20025;-79
2023/05/18 05:45:16;;;;;;;0.10;0.10;;;;;;;9.70;59.02;103034.91;5081529;28;20110;-81
2023/05/18 05:47:42;;;;;;;0.10;0.10;;;;;;;9.72;59.28;103038.50;5088237;28;20031;-80
2023/05/18 05:50:09;;;;;;;0.10;0.10;;;;;;;9.77;59.36;103034.16;5080361;28;20032;-80
2023/05/18 05:52:35;;;;;;;0.10;0.10;;;;;;;9.82;58.96;103035.13;5083584;28;20036;-80
2023/05/18 05:55:01;;;;;;;0.10;0.10;;;;;;;9.87;59.32;103037.88;5081747;28;20024;-79
2023/05/18 05:57:27;;;;;;;0.10;0.10;;;;;;;9.93;58.82;103040.63;5086827;28;20381;-79
2023/05/18 05:59:53;;;;;;;0.10;0.10;;;;;;;9.97;58.09;103039.81;5084048;28;20074;-80
2023/05/18 06:02:20;;;;;;;0.10;0.10;;;;;;;10.01;58.06;103039.00;5080823;28;20557;-80
2023/05/18 06:04:46;;;;;;;0.65;0.65;;;;;;;10.02;58.24;103038.13;5082134;28;20028;-81
2023/05/18 06:07:12;;;;;;;0.10;0.10;;;;;;;10.07;58.36;103039.97;5081831;28;20036;-78
2023/05/18 06:09:38;;;;;;;0.10;0.10;;;;;;;10.15;58.31;103033.06;5076533;28;20051;-78
2023/05/18 06:12:04;;;;;;;0.10;0.10;;;;;;;10.22;57.84;103042.91;5073814;28;20029;-78
2023/05/18 06:14:30;;;;;;;0.10;0.10;;;;;;;10.29;57.82;103050.09;5073887;28;20399;-79
2023/05/18 06:16:56;;;;;;;0.10;0.10;;;;;;;10.36;57.89;103049.34;5075610;28;20025;-78
2023/05/18 06:19:22;;;;;;;0.10;0.10;;;;;;;10.43;57.59;103050.34;5082678;28;20037;-79
2023/05/18 06:21:49;;;;;;;0.10;0.10;;;;;;;10.51;57.71;103048.69;5081782;28;20028;-80
2023/05/18 06:24:15;;;;;;;0.10;0.10;;;;;;;10.61;57.49;103048.84;5076977;28;20021;-80
2023/05/18 06:26:41;;;;;;;0.10;0.10;;;;;;;10.67;57.47;103060.41;5077589;28;20029;-80
2023/05/18 06:29:07;;;;;;;0.10;0.10;;;;;;;10.74;57.66;103055.22;5078493;28;20115;-80
2023/05/18 06:31:34;;;;;;;0.00;0.00;;;;;;;10.80;57.07;103056.22;5101739;22;20055;-80
2023/05/18 06:34:00;;;;;;;0.10;0.10;;;;;;;10.84;57.02;103055.38;5097600;28;20029;-80
2023/05/18 06:36:26;;;;;;;0.00;0.00;;;;;;;10.89;56.88;103060.75;5115129;28;20083;-79
2023/05/18 06:38:52;;;;;;;0.00;0.00;;;;;;;10.94;57.30;103064.38;5114327;28;20043;-78
2023/05/18 06:41:18;;;;;;;0.10;0.10;;;;;;;10.99;56.45;103067.06;5118094;28;20028;-80
2023/05/18 06:43:45;;;;;;;0.10;0.10;;;;;;;11.04;56.33;103062.75;5117674;28;20031;-79
2023/05/18 06:46:19;;;;;;;0.10;0.10;;;;;;;11.12;56.19;103062.84;5117020;28;20028;-82
2023/05/18 06:48:46;;;;;;;0.10;0.10;;;;;;;11.13;56.09;103054.00;5115412;28;20043;-81
2023/05/18 06:51:12;;;;;;;0.10;0.10;;;;;;;11.18;56.54;103065.56;5119856;28;20036;-77
2023/05/18 06:53:38;;;;;;;0.10;0.10;;;;;;;11.25;56.27;103064.78;5126442;28;20042;-78
2023/05/18 06:56:04;;;;;;;0.20;0.20;;;;;;;11.32;55.96;103063.09;5115654;28;20397;-78
2023/05/18 06:58:30;;;;;;;0.10;0.10;;;;;;;11.41;56.06;103067.63;5116904;28;20027;-79
2023/05/18 07:00:56;;;;;;;0.00;0.00;;;;;;;11.49;55.92;103068.59;5117117;28;20039;-80
2023/05/18 07:03:22;;;;;;;0.10;0.10;;;;;;;11.55;55.94;103068.69;5126164;28;20035;-79
2023/05/18 07:05:48;;;;;;;0.00;0.00;;;;;;;11.63;55.18;103061.69;5122819;28;20089;-80
2023/05/18 07:08:15;;;;;;;0.10;0.10;;;;;;;11.64;55.46;103070.56;5130851;28;20020;-79
2023/05/18 07:10:41;;;;;;;0.10;0.10;;;;;;;11.70;54.67;103075.03;5123677;28;20038;-80
2023/05/18 07:13:07;;;;;;;0.10;0.10;;;;;;;11.77;54.69;103068.91;5108142;28;20036;-81
2023/05/18 07:15:33;;;;;;;0.00;0.00;;;;;;;11.82;54.49;103072.50;5110727;28;20028;-80
2023/05/18 07:17:59;;;;;;;0.10;0.10;;;;;;;11.87;54.61;103076.09;5118447;28;20040;-79
2023/05/18 07:20:25;;;;;;;0.10;0.10;;;;;;;11.92;54.37;103069.06;5114500;28;20039;-78
2023/05/18 07:22:53;;;;;;;0.10;0.10;;;;;;;12.00;54.39;103074.50;5114808;28;20106;-80
2023/05/18 07:25:23;;;;;;;0.10;0.10;;;;;;;12.12;54.48;103081.69;5119238;28;20015;-80
2023/05/18 07:27:51;;;;;;;0.03;0.03;;;;;;;12.18;54.36;103076.44;5122704;27;20028;-78
2023/05/18 07:30:17;;;;;;;0.10;0.10;;;;;;;12.26;54.62;103080.06;5123182;28;20047;-78
2023/05/18 07:32:44;;;;;;;0.50;0.50;;;;;;;12.32;53.92;103073.88;5121011;28;20063;-80
2023/05/18 07:35:10;;;;;;;0.00;0.00;;;;;;;12.38;53.63;103076.59;5116000;28;20020;-78
2023/05/18 07:37:37;;;;;;;0.00;0.00;;;;;;;12.43;53.48;103074.00;5126007;28;20034;-80
2023/05/18 07:40:03;;;;;;;0.10;0.10;;;;;;;12.51;53.01;103076.69;5120491;28;20032;-78
2023/05/18 07:42:32;;;;;;;0.10;0.10;;;;;;;12.59;53.27;103077.66;5120724;28;20034;-80
2023/05/18 07:44:58;;;;;;;0.28;0.28;;;;;;;12.66;53.29;103079.50;5119414;28;20508;-81
2023/05/18 07:47:25;;;;;;;0.00;0.00;;;;;;;12.70;52.84;103080.41;5117948;27;20031;-80
2023/05/18 07:49:51;;;;;;;0.10;0.10;;;;;;;12.76;52.77;103091.06;5119504;28;20019;-79
2023/05/18 07:52:17;;;;;;;0.00;0.00;;;;;;;12.79;52.49;103093.75;5131445;27;20023;-78
2023/05/18 07:54:43;;;;;;;0.10;0.10;;;;;;;12.82;52.82;103091.09;5120616;27;20063;-78
2023/05/18 07:57:09;;;;;;;0.08;0.08;;;;;;;12.89;53.00;103090.28;5113549;28;21278;-78
2023/05/18 07:59:35;;;;;;;0.20;0.20;;;;;;;12.91;52.86;103084.94;5119976;28;20088;-78
2023/05/18 08:02:01;;;;;;;0.03;0.03;;;;;;;12.90;51.88;103094.72;5111988;28;20028;-80
2023/05/18 08:04:28;;;;;;;0.10;0.10;;;;;;;12.93;51.97;103094.75;5112190;28;20438;-79
2023/05/18 08:06:58;;;;;;;0.10;0.10;;;;;;;12.96;52.06;103088.56;5110546;28;20492;-81
2023/05/18 08:09:25;;;;;;;0.10;0.10;;;;;;;13.00;52.26;103087.69;5113893;28;20034;-80
2023/05/18 08:11:52;;;;;;;0.00;0.00;;;;;;;13.02;52.06;103090.34;5107297;28;20092;-75
2023/05/18 08:14:18;;;;;;;0.10;0.10;;;;;;;13.04;52.41;103094.78;5104326;28;20573;-80
2023/05/18 08:16:45;;;;;;;0.10;0.10;;;;;;;13.08;52.44;103098.38;5105226;28;20046;-79
2023/05/18 08:19:11;;;;;;;0.03;0.03;;;;;;;13.09;52.04;103094.84;5110435;28;20096;-80
2023/05/18 08:21:37;;;;;;;0.05;0.05;;;;;;;13.13;52.30;103095.75;5105072;28;20256;-81
2023/05/18 08:24:05;;;;;;;0.05;0.05;;;;;;;13.16;51.43;103087.75;5113204;28;20119;-80
2023/05/18 08:26:31;;;;;;;0.10;0.10;;;;;;;13.21;51.30;103088.69;5114836;28;20032;-81
2023/05/18 08:28:57;;;;;;;0.13;0.13;;;;;;;13.25;51.59;103078.03;5121749;28;20670;-78
2023/05/18 08:31:24;;;;;;;0.90;0.90;;;;;;;13.30;51.70;103082.53;5114363;28;20035;-81
2023/05/18 08:33:50;;;;;;;0.10;0.10;;;;;;;13.37;51.59;103084.31;5112194;28;20027;-83
2023/05/18 08:36:16;;;;;;;0.10;0.10;;;;;;;13.44;51.28;103086.16;5115385;28;20051;-83
2023/05/18 08:38:42;;;;;;;0.10;0.10;;;;;;;13.54;51.54;103085.28;5107916;28;20113;-81
2023/05/18 08:41:25;;;;;;;0.10;0.10;;;;;;;13.66;51.42;103081.78;5115962;28;20046;-81
2023/05/18 08:44:03;;;;;;;0.20;0.20;;;;;;;13.73;51.09;103080.03;5104038;28;20027;-81
2023/05/18 08:46:38;;;;;;;0.10;0.10;;;;;;;13.79;50.73;103076.50;5105190;28;20027;-81
2023/05/18 08:49:05;;;;;;;0.10;0.10;;;;;;;13.84;50.82;103075.59;5110326;28;20111;-81
2023/05/18 08:51:35;;;;;;;0.10;0.10;;;;;;;13.90;49.36;103078.28;5111844;28;20038;-83
2023/05/18 08:54:04;;;;;;;0.10;0.10;;;;;;;13.94;49.61;103073.84;5111491;28;20030;-81
2023/05/18 08:56:33;;;;;;;3.85;0.88;;;;;;;14.00;49.92;103073.88;5110768;28;20080;-81
2023/05/18 08:59:03;;;;;;;0.10;0.10;;;;;;;14.11;49.80;103076.56;5104127;28;20162;-76
2023/05/18 09:01:30;;;;;;;0.10;0.10;;;;;;;14.19;49.94;103065.88;5112429;28;20035;-77
2023/05/18 09:03:57;;;;;;;0.10;0.10;;;;;;;14.29;48.82;103066.78;5105411;28;20020;-79
2023/05/18 09:06:25;;;;;;;0.50;0.50;;;;;;;14.41;48.47;103072.13;5112246;28;20038;-80
2023/05/18 09:08:56;;;;;;;0.08;0.08;;;;;;;14.49;48.77;103065.00;5112706;28;20036;-82
2023/05/18 09:11:25;;;;;;;0.20;0.20;;;;;;;14.50;48.05;103061.41;5101095;28;20036;-80
2023/05/18 09:13:51;;;;;;;0.10;0.10;;;;;;;14.56;48.46;103053.41;5111644;28;20028;-80
2023/05/18 09:16:17;;;;;;;0.10;0.10;;;;;;;14.66;48.47;103057.00;5118138;28;20027;-81
2023/05/18 09:18:44;;;;;;;0.10;0.10;;;;;;;14.76;48.17;103049.00;5111715;28;20032;-76
2023/05/18 09:21:11;;;;;;;0.05;0.05;;;;;;;14.84;47.92;103047.16;5100763;28;20032;-79
2023/05/18 09:23:40;;;;;;;0.08;0.08;;;;;;;14.90;48.00;103039.16;5107156;28;20024;-79
2023/05/18 09:26:11;;;;;;;0.00;0.00;;;;;;;14.96;47.66;103040.94;5111002;27;20023;-79
2023/05/18 09:28:39;;;;;;;0.03;0.03;;;;;;;15.08;48.00;103038.22;5110905;28;20028;-79
2023/05/18 09:31:11;;;;;;;0.10;0.10;;;;;;;15.17;47.17;103029.28;5102308;28;20039;-81
2023/05/18 09:33:38;;;;;;;2.25;1.75;;;;;;;15.25;47.15;103031.91;5111492;28;20074;-82
2023/05/18 09:36:06;;;;;;;0.10;0.10;;;;;;;15.32;47.12;103036.34;5106646;28;20401;-81
2023/05/18 09:38:44;;;;;;;0.10;0.10;;;;;;;15.40;46.76;103029.16;5111510;28;20025;-81
2023/05/18 09:41:11;;;;;;;0.10;0.10;;;;;;;15.45;46.77;103029.13;5104469;27;20129;-79
2023/05/18 09:43:39;;;;;;;0.10;0.10;;;;;;;15.57;46.28;103029.06;5111368;27;20153;-79
2023/05/18 09:46:07;;;;;;;0.10;0.10;;;;;;;15.75;46.28;103030.75;5109407;28;20031;-79
2023/05/18 09:48:35;;;;;;;0.10;0.10;;;;;;;15.91;46.09;103030.66;5110619;28;20027;-79
2023/05/18 09:51:03;;;;;;;0.10;0.10;;;;;;;16.04;46.15;103031.44;5109912;28;20027;-79
2023/05/18 09:53:29;;;;;;;0.10;0.10;;;;;;;16.11;45.54;103025.16;5117445;28;20032;-79
2023/05/18 09:56:00;;;;;;;0.15;0.15;;;;;;;16.13;45.02;103032.25;5111921;28;20034;-79
2023/05/18 09:58:32;;;;;;;0.10;0.10;;;;;;;16.21;45.68;103032.19;5113334;28;20035;-79
2023/05/18 10:01:01;;;;;;;0.10;0.10;;;;;;;16.31;45.30;103033.00;5121606;28;20050;-80
2023/05/18 10:03:35;;;;;;;0.00;0.00;;;;;;;16.38;44.72;103025.81;5122781;28;20019;-80
2023/05/18 10:08:44;;;;;;;0.10;0.10;;;;;;;16.46;44.42;103022.16;5142065;27;20403;-82
2023/05/18 10:11:10;;;;;;;0.10;0.10;;;;;;;16.49;44.64;103022.13;5116112;28;20024;-83
2023/05/18 10:13:37;;;;;;;0.10;0.10;;;;;;;16.50;44.28;103020.34;5120647;28;20051;-82
2023/05/18 10:16:06;;;;;;;0.10;0.10;;;;;;;16.53;44.11;103028.34;5114453;28;20035;-82
2023/05/18 10:18:35;;;;;;;0.10;0.10;;;;;;;16.56;44.22;103027.41;5123286;28;20032;-83
2023/05/18 10:21:03;;;;;;;0.25;0.25;;;;;;;16.48;43.56;103022.16;5119015;28;20148;-83
2023/05/18 10:23:33;;;;;;;0.10;0.10;;;;;;;16.40;43.66;103018.66;5121328;28;20129;-81
2023/05/18 10:26:00;;;;;;;0.93;0.93;;;;;;;16.39;44.20;103016.91;5120133;28;20035;-81
2023/05/18 10:28:29;;;;;;;0.10;0.10;;;;;;;16.36;44.12;103011.56;5121448;28;20012;-81
2023/05/18 10:30:58;;;;;;;0.10;0.10;;;;;;;16.29;44.20;103013.41;5106484;28;20091;-80
2023/05/18 10:33:27;;;;;;;0.03;0.03;;;;;;;16.25;44.33;103014.31;5115472;28;20489;-81
2023/05/18 10:35:54;;;;;;;0.03;0.03;;;;;;;16.20;44.25;103021.50;5121695;28;20024;-81
2023/05/18 10:38:23;;;;;;;0.10;0.10;;;;;;;16.16;43.64;103016.19;5118150;28;20080;-82
2023/05/18 10:40:55;;;;;;;0.10;0.10;;;;;;;16.24;44.03;103007.22;5115915;28;20028;-81
2023/05/18 10:43:27;;;;;;;0.10;0.10;;;;;;;16.41;44.19;103007.94;5093322;28;20043;-82
2023/05/18 10:45:54;;;;;;;;;;;;;;;16.72;43.72;102994.22;5112492;28;20036;-82
2023/05/18 10:48:22;;;;;;;0.10;0.10;;;;;;;16.80;43.74;102992.34;5116824;28;19908;-81
2023/05/18 10:50:49;;;;;;;0.00;0.00;;;;;;;17.02;43.76;102996.59;5122787;28;20026;-81
2023/05/18 10:53:21;;;;;;;0.10;0.10;;;;;;;17.20;43.19;102992.81;5119287;28;20028;-82
2023/05/18 10:55:48;;;;;;;0.17;0.17;;;;;;;17.36;42.79;102986.31;5110895;28;20377;-82
2023/05/18 10:58:17;;;;;;;0.10;0.10;;;;;;;17.44;42.51;102991.56;5111629;28;20028;-80
2023/05/18 11:00:48;;;;;;;0.20;0.20;;;;;;;17.51;42.34;102989.66;5109206;28;20024;-83
2023/05/18 11:03:16;;;;;;;0.10;0.10;;;;;;;17.53;42.57;102988.72;5113641;28;20115;-82
2023/05/18 11:05:43;;;;;;;1.55;1.45;;;;;;;17.59;42.35;102977.91;5110710;28;20043;-81
2023/05/18 11:08:09;;;;;;;0.10;0.10;;;;;;;17.68;42.04;102986.72;5116470;28;20024;-82
2023/05/18 11:10:46;;;;;;;0.10;0.10;;;;;;;17.82;42.61;102981.13;5111800;28;20038;-82
2023/05/18 11:13:13;;;;;;;0.10;0.10;;;;;;;17.83;41.63;102982.91;5104216;28;20489;-83
2023/05/18 11:24:28;;;;;;;0.10;0.10;;;;;;;18.07;41.63;102974.50;5135666;27;20116;-82
2023/05/18 11:29:43;;;;;;;0.10;0.10;;;;;;;18.27;40.93;102967.88;5071397;28;20780;-82
2023/05/18 11:32:35;;;;;;;0.00;0.00;;;;;;;18.29;40.31;102966.03;5038311;28;20025;-80
2023/05/18 11:35:01;;;;;;;0.03;0.03;;;;;;;18.15;40.13;102971.66;5036545;28;20033;-81
2023/05/18 11:40:44;;;;;;;0.10;0.10;;;;;;;18.31;40.23;102966.03;5169693;27;20408;-81
2023/05/18 11:46:17;;;;;;;0.10;0.10;;;;;;;18.53;40.09;102951.28;5049711;28;20424;-82
2023/05/18 11:48:43;;;;;;;1.10;0.65;;;;;;;18.59;40.24;102950.25;5037991;28;20038;-83
2023/05/18 11:51:10;;;;;;;0.10;0.10;;;;;;;18.68;40.00;102955.47;5030864;28;20040;-81
2023/05/18 11:53:36;;;;;;;0.15;0.15;;;;;;;18.72;40.15;102941.03;5029746;28;20493;-81
2023/05/18 11:56:10;;;;;;;0.10;0.10;;;;;;;18.84;39.81;102945.28;5030591;28;20098;-84
2023/05/18 11:58:39;;;;;;;0.10;0.10;;;;;;;18.85;39.85;102940.78;5026629;28;20029;-81
2023/05/18 12:01:10;;;;;;;0.10;0.10;;;;;;;18.83;39.56;102942.59;5024594;28;20057;-80